Latest Coastal Weather Observations for Cape Leeuwin

IDW60701

Issued at 12:52 am WST Sunday 30 August 2015 (issued every 10 minutes, with the page automatically refreshed every 10 minutes)

About coastal observations | Map of coastal stations | Coastal observations for WA | Marine services | Other Formats
Station Details ID: 009518 Name: CAPE LEEUWIN Lat: -34.37 Lon: 115.14 Height: 13.0 m
Data from the previous 72 hours. | See also: Recent months at Cape Leeuwin
Date/Time
WST
Temp

°C
Wind Pressure Rain
since 9am
mm
Weather Cloud Vis
km
Sea
Height
m
Swell
Dir
 
Speed
knots
Gust
knots
hPa Trend Height
m
Period
s
Dir
30/12:49am 14.8 W 30 42 1012.2 - 7.6 - - - - - - -
30/12:30am 14.9 W 30 36 1012.1 - 7.6 - - - - - - -
30/12:00am 14.5 W 34 39 1011.9 - 7.6 - - - - - - -
 
Date/Time
WST
Temp

°C
Wind Pressure Rain
since 9am
mm
Weather Cloud Vis
km
Sea
Height
m
Swell
Dir
 
Speed
knots
Gust
knots
hPa Trend Height
m
Period
s
Dir
29/11:30pm 15.8 WNW 27 32 1011.5 - 7.6 - - - - - - -
29/11:00pm 15.9 WNW 28 32 1011.4 - 7.6 - - - - - - -
29/10:30pm 15.9 W 25 29 1011.4 - 7.6 - - - - - - -
29/10:00pm 16.1 WNW 27 33 1011.4 - 7.6 - - - - - - -
29/09:30pm 16.2 WNW 30 34 1011.2 - 7.6 - - - - - - -
29/09:00pm 15.8 WNW 26 30 1011.2 - 7.6 - - - - - - -
29/08:30pm 16.4 WNW 24 28 1011.0 - 7.6 - - - - - - -
29/08:00pm 16.7 WNW 25 32 1010.6 - 7.6 - - - - - - -
29/07:50pm 16.6 WNW 27 34 1010.4 - 7.6 - - - - - - -
29/07:30pm 16.3 NW 21 24 1010.5 - 7.6 - - - - - - -
29/07:00pm 16.2 NW 19 25 1010.3 - 7.6 - - - - - - -
29/06:30pm 15.6 NW 20 26 1010.4 - 7.6 - - - - - - -
29/06:00pm 16.1 NW 18 21 1009.9 - 7.6 - - - - - - -
29/05:30pm 15.7 WNW 21 24 1009.8 - 7.6 - - - - - - -
29/05:00pm 16.5 WNW 21 25 1009.4 - 7.6 - - - - - - -
29/04:30pm 16.7 WNW 21 24 1009.2 - 7.6 - - - - - - -
29/04:00pm 16.8 WNW 20 23 1009.1 - 7.6 - - - - - - -
29/03:30pm 16.1 W 14 16 1009.1 - 7.6 - - - - - - -
29/03:00pm 16.2 W 15 18 1008.8 - 7.6 - - - - - - -
29/02:30pm 16.7 W 15 19 1008.4 - 7.6 - - - - - - -
29/02:00pm 16.5 WSW 15 19 1008.1 - 7.6 - - - - - - -
29/01:30pm 16.3 WSW 18 21 1008.0 - 7.6 - - - - - - -
29/01:00pm 16.2 WSW 19 21 1007.8 - 7.6 - - - - - - -
29/12:37pm 16.0 WNW 21 24 1007.9 - 7.0 - - - - - - -
29/12:30pm 16.1 NW 22 25 1007.8 - 7.0 - - - - - - -
29/12:00pm 15.2 NW 15 22 1008.2 - 4.6 Rain - - - - - -
29/11:50am 15.0 WNW 25 33 1008.6 - 3.0 - - - - - - -
29/11:40am 16.1 NW 23 32 1008.1 - 0.8 - - - - - - -
29/11:30am 18.2 NNW 21 28 1007.9 - 0.8 - - - - - - -
29/11:00am 18.3 NNW 23 31 1008.2 - 0.8 - - - - - - -
29/10:45am 18.1 NNW 20 30 1008.3 - 0.8 - - - - - - -
29/10:30am 17.9 N 21 27 1008.3 - 0.8 - - - - - - -
29/10:00am 18.1 N 22 35 1008.5 - 0.6 - - - - - - -
29/09:53am 17.5 N 19 35 1008.6 - 0.6 - - - - - - -
29/09:30am 16.3 NNE 14 20 1009.0 - 0.6 - - - - - - -
29/09:00am 15.4 NNE 14 19 1009.3 - 3.2 Rain - - - - - -
29/08:30am 15.4 NNE 13 19 1009.5 - 3.0 - - - - - - -
29/08:00am 14.9 N 13 18 1009.9 - 1.2 - - - - - - -
29/07:30am 15.3 NNE 13 16 1009.5 - 0.0 - - - - - - -
29/07:00am 15.0 NNE 11 15 1009.5 - 0.0 - - - - - - -
29/06:30am 16.1 N 11 14 1009.6 - 0.0 - - - - - - -
29/06:00am 15.9 N 12 14 1009.8 - 0.0 - - - - - - -
29/05:30am 16.0 N 13 15 1009.7 - 0.0 - - - - - - -
29/05:00am 16.3 NNW 14 18 1009.8 - 0.0 - - - - - - -
29/04:30am 16.0 N 13 17 1009.9 - 0.0 - - - - - - -
29/04:00am 14.9 N 14 21 1010.1 - 0.0 - - - - - - -
29/03:30am 14.8 NNE 14 19 1010.1 - 0.0 - - - - - - -
29/03:00am 14.5 NNE 14 21 1010.7 - 0.0 - - - - - - -
29/02:30am 14.3 NNE 12 15 1011.0 - 0.0 - - - - - - -
29/02:00am 14.3 NNE 15 20 1011.5 - 0.0 - - - - - - -
29/01:30am 14.3 NNE 13 18 1011.7 - 0.0 - - - - - - -
29/01:00am 14.3 NNE 13 17 1012.2 - 0.0 - - - - - - -
29/12:30am 14.3 NNE 12 17 1012.6 - 0.0 - - - - - - -
29/12:00am 13.7 NNE 12 15 1012.7 - 0.0 - - - - - - -
 
Date/Time
WST
Temp

°C
Wind Pressure Rain
since 9am
mm
Weather Cloud Vis
km
Sea
Height
m
Swell
Dir
 
Speed
knots
Gust
knots
hPa Trend Height
m
Period
s
Dir
28/11:30pm 13.8 NNE 10 12 1013.0 - 0.0 - - - - - - -
28/11:00pm 14.0 NNE 10 13 1013.5 - 0.0 - - - - - - -
28/10:30pm 14.6 N 11 14 1013.9 - 0.0 - - - - - - -
28/10:00pm 14.9 N 11 14 1014.1 - 0.0 - - - - - - -
28/09:30pm 15.2 N 10 12 1014.5 - 0.0 - - - - - - -
28/09:00pm 14.7 N 9 11 1014.4 - 0.0 - - - - - - -
28/08:30pm 14.7 N 9 11 1014.1 - 0.0 - - - - - - -
28/08:00pm 15.8 N 7 10 1014.2 - 0.0 - - - - - - -
28/07:30pm 16.5 NW 14 16 1014.3 - 0.0 - - - - - - -
28/07:00pm 16.4 NW 15 18 1014.2 - 0.0 - - - - - - -
28/06:30pm 16.4 NW 15 17 1013.9 - 0.0 - - - - - - -
28/06:00pm 16.5 NW 15 18 1013.6 - 0.0 - - - - - - -
28/05:30pm 16.8 NW 14 18 1013.6 - 0.0 - - - - - - -
28/05:00pm 17.2 NW 16 19 1013.5 - 0.0 - - - - - - -
28/04:30pm 17.5 NW 15 19 1013.5 - 0.0 - - - - - - -
28/04:00pm 17.4 WNW 15 19 1013.3 - 0.0 - - - - - - -
28/03:30pm 17.8 NW 18 22 1013.3 - 0.0 - - - - - - -
28/03:00pm 17.5 WNW 15 19 1013.2 - 0.0 - - - - - - -
28/02:30pm 17.4 WNW 17 20 1013.2 - 0.0 - - - - - - -
28/02:00pm 17.7 NW 17 22 1013.3 - 0.0 - - - - - - -
28/01:30pm 17.7 WNW 17 20 1013.3 - 0.0 - - - - - - -
28/01:00pm 18.3 NW 18 21 1013.5 - 0.0 - - - - - - -
28/12:30pm 17.9 NW 18 21 1013.7 - 0.0 - - - - - - -
28/12:00pm 18.0 WNW 19 23 1013.9 - 0.0 - - - - - - -
28/11:30am 17.4 WNW 17 20 1014.1 - 0.0 - - - - - - -
28/11:00am 17.4 WNW 17 22 1014.0 - 0.0 - - - - - - -
28/10:30am 17.6 WNW 17 20 1013.9 - 0.0 - - - - - - -
28/10:00am 17.0 WNW 17 19 1013.9 - 0.0 - - - - - - -
28/09:30am 17.2 WNW 17 20 1013.8 - 0.0 - - - - - - -
28/09:00am 17.0 WNW 19 23 1013.6 - 0.0 - - - - - - -
28/08:30am 16.9 WNW 19 22 1013.4 - 0.0 - - - - - - -
28/08:00am 16.7 WNW 19 21 1013.2 - 0.0 - - - - - - -
28/07:30am 16.9 WNW 20 23 1012.8 - 0.0 - - - - - - -
28/07:00am 17.0 WNW 21 25 1012.4 - 0.0 - - - - - - -
28/06:30am 17.1 WNW 21 25 1011.8 - 0.0 - - - - - - -
28/06:00am 17.3 WNW 25 29 1011.6 - 0.0 - - - - - - -
28/05:30am 17.5 NW 19 23 1011.6 - 0.0 - - - - - - -
28/05:00am 17.5 NW 19 22 1011.5 - 0.0 - - - - - - -
28/04:30am 17.3 NW 15 18 1011.4 - 0.0 - - - - - - -
28/04:00am 17.2 NW 16 18 1011.4 - 0.0 - - - - - - -
28/03:30am 16.9 NNW 16 18 1011.4 - 0.0 - - - - - - -
28/03:00am 16.7 NNW 15 18 1011.6 - 0.0 - - - - - - -
28/02:30am 17.0 NNW 16 20 1011.6 - 0.0 - - - - - - -
28/02:00am 16.9 NNW 16 19 1011.7 - 0.0 - - - - - - -
28/01:30am 16.5 N 13 17 1011.8 - 0.0 - - - - - - -
28/01:00am 16.1 N 15 22 1011.7 - 0.0 - - - - - - -
28/12:30am 16.0 NNE 17 23 1011.5 - 0.0 - - - - - - -
28/12:00am 16.0 NNE 18 23 1011.5 - 0.0 - - - - - - -
 
Date/Time
WST
Temp

°C
Wind Pressure Rain
since 9am
mm
Weather Cloud Vis
km
Sea
Height
m
Swell
Dir
 
Speed
knots
Gust
knots
hPa Trend Height
m
Period
s
Dir
27/11:30pm 16.3 NNE 19 25 1011.7 - 0.0 - - - - - - -
27/11:00pm 16.0 NE 17 21 1012.1 - 0.0 - - - - - - -
27/10:30pm 15.6 NE 13 16 1012.5 - 0.0 - - - - - - -
27/10:00pm 15.6 NE 13 14 1012.9 - 0.0 - - - - - - -
27/09:30pm 15.4 ENE 12 13 1013.2 - 0.0 - - - - - - -
27/09:00pm 15.9 ENE 11 13 1013.5 - 0.0 - - - - - - -
27/08:30pm 16.4 ENE 12 13 1013.7 - 0.0 - - - - - - -
27/08:00pm 16.9 ENE 12 14 1013.8 - 0.0 - - - - - - -
27/07:30pm 17.4 E 12 15 1014.0 - 0.0 - - - - - - -
27/07:00pm 17.4 E 12 15 1014.1 - 0.0 - - - - - - -
27/06:30pm 17.4 ESE 10 11 1014.1 - 0.0 - - - - - - -
27/06:00pm 17.7 ESE 10 12 1014.0 - 0.0 - - - - - - -
27/05:30pm 17.9 ESE 9 11 1014.0 - 0.0 - - - - - - -
27/05:00pm 18.2 SE 7 9 1014.2 - 0.0 - - - - - - -
27/04:30pm 18.8 SE 6 7 1014.5 - 0.0 - - - - - - -
27/04:00pm 19.3 SSE 5 7 1014.9 - 0.0 - - - - - - -
27/03:30pm 19.6 SE 6 8 1015.1 - 0.0 - - - - - - -
27/03:00pm 19.8 SE 7 10 1015.1 - 0.0 - - - - - - -
27/02:30pm 19.7 SE 9 11 1015.1 - 0.0 - - - - - - -
27/02:00pm 20.4 ESE 10 11 1015.3 - 0.0 - - - - - - -
27/01:30pm 20.3 E 11 12 1015.6 - 0.0 - - - - - - -
27/01:00pm 20.0 ESE 11 14 1016.0 - 0.0 - - - - - - -
27/12:30pm 20.7 NE 10 14 1016.6 - 0.0 - - - - - - -
27/12:00pm 20.1 ENE 12 16 1017.0 - 0.0 - - - - - - -
27/11:30am 19.5 NE 13 20 1017.6 - 0.0 - - - - - - -
27/11:00am 18.6 NE 13 18 1017.8 - 0.0 - - - - - - -
27/10:30am 17.3 NE 16 21 1018.1 - 0.0 - - - - - - -
27/10:00am 16.3 NE 16 22 1018.4 - 0.0 - - - - - - -
27/09:30am 15.5 NNE 18 22 1018.5 - 0.0 - - - - - - -
27/09:00am 14.6 NNE 19 22 1018.6 - 0.0 - - - - - - -
27/08:30am 14.0 NNE 18 21 1018.7 - 0.0 - - - - - - -
27/08:00am 13.4 NNE 17 23 1018.7 - 0.0 - - - - - - -
27/07:30am 13.2 NNE 17 22 1018.5 - 0.0 - - - - - - -
27/07:00am 12.2 NNE 17 21 1018.3 - 0.0 - - - - - - -
27/06:30am 12.5 NNE 17 21 1018.2 - 0.0 - - - - - - -
27/06:00am 12.3 NNE 17 21 1018.0 - 0.0 - - - - - - -
27/05:30am 12.1 NNE 18 21 1017.8 - 0.0 - - - - - - -
27/05:00am 12.1 NNE 17 20 1017.7 - 0.0 - - - - - - -
27/04:30am 12.2 NNE 16 19 1017.8 - 0.0 - - - - - - -
27/04:00am 12.2 NNE 15 18 1017.8 - 0.0 - - - - - - -
27/03:30am 12.2 NE 14 16 1018.0 - 0.0 - - - - - - -
27/03:00am 11.7 NNE 9 12 1018.3 - 0.0 - - - - - - -
27/02:30am 12.2 NNW 2 6 1018.7 - 0.0 - - - - - - -
27/02:00am 12.5 NNW 1 4 1018.9 - 0.0 - - - - - - -
27/01:30am 12.3 CALM 0 0 1019.1 - 0.0 - - - - - - -
27/01:00am 12.8 NNW 2 4 1019.4 - 0.0 - - - - - - -

Other Formats:

Comma delimited format used in spreadsheet applications
http://www.bom.gov.au/fwo/IDW60701/IDW60701.94601.axf

JavaScript Object Notation format (JSON) in row-major order
http://www.bom.gov.au/fwo/IDW60701/IDW60701.94601.json